Terminal Aerodrome Forecast
Issued by NWS

Home | Current Version | Previous Version | Text Only | Print | Product List | Glossary On
Versions: 1 2 3 4 5 6 7 8 9 10 11 12 13 14
000
FTUS44 KSJT 310500
TAFSOA
TAF
KSOA 310528Z 3106/0106 12007KT P6SM BKN050
      TEMPO 3107/3109 -RA OVC020
     FM310900 13008KT 6SM -RA BR OVC015
     FM311300 15011KT 3SM -RA BR OVC004
     FM312000 17012KT 4SM BR VCSH OVC007=

USA.gov is the U.S. government's official web portal to all federal, state and local government web resources and services.